Time,TemperatureF,DewpointF,PressureIn,WindDirection,WindDirectionDegrees,WindSpeedMPH,WindSpeedGustMPH,Humidity,HourlyPrecipIn,Conditions,Clouds,dailyrainin,SolarRadiationWatts/m^2,SoftwareType,DateUTC
2013-08-21 00:02:00,74.0,52.0,-100.00,WNW,296,5.0,13.0,46,0.00,,,0.00,718.000000,,2013-08-21 00:02:00,
2013-08-21 00:42:00,75.0,52.0,-100.00,WNW,288,4.0,11.0,45,0.00,,,0.00,583.000000,,2013-08-21 00:42:00,
2013-08-21 00:52:00,75.0,52.0,-100.00,WNW,288,4.0,11.0,45,0.00,,,0.00,583.000000,,2013-08-21 00:52:00,
2013-08-21 01:02:00,75.0,52.0,-100.00,WNW,288,4.0,11.0,45,0.00,,,0.00,583.000000,,2013-08-21 01:02:00,
2013-08-21 01:42:00,75.0,50.0,-100.00,NW,306,3.0,10.0,42,0.00,,,0.00,419.000000,,2013-08-21 01:42:00,
2013-08-21 01:52:00,75.0,50.0,-100.00,NW,306,3.0,10.0,42,0.00,,,0.00,419.000000,,2013-08-21 01:52:00,
2013-08-21 02:02:00,75.0,50.0,-100.00,NW,306,3.0,10.0,42,0.00,,,0.00,419.000000,,2013-08-21 02:02:00,
2013-08-21 02:42:00,72.0,51.0,-100.00,NW,310,4.0,9.0,47,0.00,,,0.00,239.000000,,2013-08-21 02:42:00,
2013-08-21 02:52:00,72.0,51.0,-100.00,NW,310,4.0,9.0,47,0.00,,,0.00,239.000000,,2013-08-21 02:52:00,
2013-08-21 03:02:00,72.0,51.0,-100.00,NW,310,4.0,9.0,47,0.00,,,0.00,239.000000,,2013-08-21 03:02:00,
2013-08-21 03:44:00,65.0,50.0,-100.00,NNW,348,1.0,7.0,58,0.00,,,0.00,66.000000,,2013-08-21 03:44:00,
2013-08-21 03:55:00,65.0,50.0,-100.00,NNW,348,1.0,7.0,58,0.00,,,0.00,66.000000,,2013-08-21 03:55:00,
2013-08-21 04:04:00,65.0,50.0,-100.00,NNW,348,1.0,7.0,58,0.00,,,0.00,66.000000,,2013-08-21 04:04:00,
2013-08-21 04:44:00,61.0,48.0,-100.00,NNE,13,1.0,5.0,63,0.00,,,0.00,1.000000,,2013-08-21 04:44:00,
2013-08-21 04:54:00,61.0,48.0,-100.00,NNE,13,1.0,5.0,63,0.00,,,0.00,1.000000,,2013-08-21 04:54:00,
2013-08-21 05:02:00,61.0,48.0,-100.00,NNE,13,1.0,5.0,63,0.00,,,0.00,1.000000,,2013-08-21 05:02:00,
2013-08-21 05:43:00,56.0,49.0,-100.00,East,80,2.0,3.0,76,0.00,,,0.00,0.000000,,2013-08-21 05:43:00,
2013-08-21 05:52:00,56.0,49.0,-100.00,East,80,2.0,3.0,76,0.00,,,0.00,0.000000,,2013-08-21 05:52:00,
2013-08-21 06:02:00,56.0,49.0,-100.00,East,80,2.0,3.0,76,0.00,,,0.00,0.000000,,2013-08-21 06:02:00,
2013-08-21 06:42:00,56.0,48.0,-100.00,East,86,2.0,4.0,75,0.00,,,0.00,0.000000,,2013-08-21 06:42:00,
2013-08-21 06:52:00,56.0,48.0,-100.00,East,86,2.0,4.0,75,0.00,,,0.00,0.000000,,2013-08-21 06:52:00,
2013-08-21 07:01:00,56.0,48.0,-100.00,East,86,2.0,4.0,75,0.00,,,0.00,0.000000,,2013-08-21 07:01:00,
2013-08-21 07:42:00,55.0,48.0,-100.00,ENE,61,1.0,3.0,78,0.00,,,0.00,0.000000,,2013-08-21 07:42:00,
2013-08-21 07:53:00,55.0,48.0,-100.00,ENE,61,1.0,3.0,78,0.00,,,0.00,0.000000,,2013-08-21 07:53:00,
2013-08-21 08:03:00,55.0,48.0,-100.00,ENE,61,1.0,3.0,78,0.00,,,0.00,0.000000,,2013-08-21 08:03:00,
2013-08-21 08:43:00,55.0,48.0,-100.00,ENE,76,1.0,3.0,76,0.00,,,0.00,0.000000,,2013-08-21 08:43:00,
2013-08-21 08:52:00,55.0,48.0,-100.00,ENE,76,1.0,3.0,76,0.00,,,0.00,0.000000,,2013-08-21 08:52:00,
2013-08-21 09:01:00,55.0,48.0,-100.00,ENE,76,1.0,3.0,76,0.00,,,0.00,0.000000,,2013-08-21 09:01:00,
2013-08-21 09:43:00,55.0,47.0,-100.00,ENE,65,2.0,3.0,73,0.00,,,0.00,0.000000,,2013-08-21 09:43:00,
2013-08-21 09:53:00,55.0,47.0,-100.00,ENE,65,2.0,3.0,73,0.00,,,0.00,0.000000,,2013-08-21 09:53:00,
2013-08-21 10:03:00,55.0,47.0,-100.00,ENE,65,2.0,3.0,73,0.00,,,0.00,0.000000,,2013-08-21 10:03:00,
2013-08-21 10:43:00,58.0,46.0,-100.00,NE,56,2.0,4.0,64,0.00,,,0.00,0.000000,,2013-08-21 10:43:00,
2013-08-21 10:52:00,58.0,46.0,-100.00,NE,56,2.0,4.0,64,0.00,,,0.00,0.000000,,2013-08-21 10:52:00,
2013-08-21 11:03:00,58.0,46.0,-100.00,NE,56,2.0,4.0,64,0.00,,,0.00,0.000000,,2013-08-21 11:03:00,
2013-08-21 11:42:00,59.0,40.0,-100.00,ENE,61,2.0,4.0,50,0.00,,,0.00,0.000000,,2013-08-21 11:42:00,
2013-08-21 11:52:00,59.0,40.0,-100.00,ENE,61,2.0,4.0,50,0.00,,,0.00,0.000000,,2013-08-21 11:52:00,
2013-08-21 12:01:00,59.0,40.0,-100.00,ENE,61,2.0,4.0,50,0.00,,,0.00,0.000000,,2013-08-21 12:01:00,
2013-08-21 12:42:00,60.0,42.0,-100.00,ENE,76,2.0,3.0,52,0.00,,,0.00,0.000000,,2013-08-21 12:42:00,
2013-08-21 12:52:00,60.0,42.0,-100.00,ENE,76,2.0,3.0,52,0.00,,,0.00,0.000000,,2013-08-21 12:52:00,
2013-08-21 13:02:00,60.0,42.0,-100.00,ENE,76,2.0,3.0,52,0.00,,,0.00,0.000000,,2013-08-21 13:02:00,
2013-08-21 13:42:00,60.0,44.0,-100.00,North,3,1.0,4.0,55,0.00,,,0.00,0.000000,,2013-08-21 13:42:00,
2013-08-21 13:52:00,60.0,44.0,-100.00,North,3,1.0,4.0,55,0.00,,,0.00,0.000000,,2013-08-21 13:52:00,
2013-08-21 14:02:00,60.0,44.0,-100.00,North,3,1.0,4.0,55,0.00,,,0.00,0.000000,,2013-08-21 14:02:00,
2013-08-21 14:42:00,60.0,44.0,-100.00,NE,41,2.0,4.0,55,0.00,,,0.00,11.000000,,2013-08-21 14:42:00,
2013-08-21 14:52:00,60.0,44.0,-100.00,NE,41,2.0,4.0,55,0.00,,,0.00,11.000000,,2013-08-21 14:52:00,
2013-08-21 15:01:00,60.0,44.0,-100.00,NE,41,2.0,4.0,55,0.00,,,0.00,11.000000,,2013-08-21 15:01:00,
2013-08-21 15:43:00,62.0,45.0,-100.00,ENE,76,0.0,7.0,53,0.00,,,0.00,36.000000,,2013-08-21 15:43:00,
2013-08-21 15:54:00,62.0,45.0,-100.00,ENE,76,0.0,7.0,53,0.00,,,0.00,36.000000,,2013-08-21 15:54:00,
2013-08-21 16:04:00,62.0,45.0,-100.00,ENE,76,0.0,7.0,53,0.00,,,0.00,36.000000,,2013-08-21 16:04:00,
2013-08-21 16:43:00,71.0,41.0,-100.00,SSE,154,4.0,14.0,34,0.00,,,0.00,222.000000,,2013-08-21 16:43:00,
2013-08-21 16:53:00,71.0,41.0,-100.00,SSE,154,4.0,14.0,34,0.00,,,0.00,222.000000,,2013-08-21 16:53:00,
2013-08-21 17:03:00,71.0,41.0,-100.00,SSE,154,4.0,14.0,34,0.00,,,0.00,222.000000,,2013-08-21 17:03:00,
2013-08-21 17:43:00,74.0,42.0,-100.00,North,8,5.0,17.0,32,0.00,,,0.00,493.000000,,2013-08-21 17:43:00,
2013-08-21 17:53:00,74.0,42.0,-100.00,North,8,5.0,17.0,32,0.00,,,0.00,493.000000,,2013-08-21 17:53:00,
2013-08-21 18:02:00,74.0,42.0,-100.00,North,8,5.0,17.0,32,0.00,,,0.00,493.000000,,2013-08-21 18:02:00,
2013-08-21 18:42:00,76.0,43.0,-100.00,NNE,17,6.0,18.0,31,0.00,,,0.00,634.000000,,2013-08-21 18:42:00,
2013-08-21 18:52:00,76.0,43.0,-100.00,NNE,17,6.0,18.0,31,0.00,,,0.00,634.000000,,2013-08-21 18:52:00,
2013-08-21 19:01:00,76.0,43.0,-100.00,NNE,17,6.0,18.0,31,0.00,,,0.00,634.000000,,2013-08-21 19:01:00,
2013-08-21 19:42:00,79.0,43.0,-100.00,NNE,18,5.0,18.0,28,0.00,,,0.00,760.000000,,2013-08-21 19:42:00,
2013-08-21 19:52:00,79.0,43.0,-100.00,NNE,18,5.0,18.0,28,0.00,,,0.00,760.000000,,2013-08-21 19:52:00,
2013-08-21 20:02:00,79.0,43.0,-100.00,NNE,18,5.0,18.0,28,0.00,,,0.00,760.000000,,2013-08-21 20:02:00,
2013-08-21 20:42:00,79.0,41.0,-100.00,NNE,16,6.0,15.0,26,0.00,,,0.00,729.000000,,2013-08-21 20:42:00,
2013-08-21 20:52:00,79.0,41.0,-100.00,NNE,16,6.0,15.0,26,0.00,,,0.00,729.000000,,2013-08-21 20:52:00,
2013-08-21 21:02:00,79.0,41.0,-100.00,NNE,16,6.0,15.0,26,0.00,,,0.00,729.000000,,2013-08-21 21:02:00,
2013-08-21 21:44:00,83.0,42.0,-100.00,NNE,13,5.0,16.0,24,0.00,,,0.00,881.000000,,2013-08-21 21:44:00,
2013-08-21 21:54:00,83.0,42.0,-100.00,NNE,13,5.0,16.0,24,0.00,,,0.00,881.000000,,2013-08-21 21:54:00,
2013-08-21 22:04:00,83.0,42.0,-100.00,NNE,13,5.0,16.0,24,0.00,,,0.00,881.000000,,2013-08-21 22:04:00,
2013-08-21 22:44:00,83.0,41.0,-100.00,NNE,14,5.0,17.0,23,0.00,,,0.00,595.000000,,2013-08-21 22:44:00,
2013-08-21 22:53:00,83.0,41.0,-100.00,NNE,14,5.0,17.0,23,0.00,,,0.00,595.000000,,2013-08-21 22:53:00,
2013-08-21 23:03:00,83.0,41.0,-100.00,NNE,14,5.0,17.0,23,0.00,,,0.00,595.000000,,2013-08-21 23:03:00,
2013-08-21 23:43:00,83.0,42.0,-100.00,NE,35,4.0,13.0,24,0.00,,,0.00,640.000000,,2013-08-21 23:43:00,
2013-08-21 23:53:00,83.0,42.0,-100.00,NE,35,4.0,13.0,24,0.00,,,0.00,640.000000,,2013-08-21 23:53:00,